Thursday, September 20, 2018, 8:58 AM EDT
Back to Local

KBDL, Bradley International Airport

Location: Windsor Locks, CT, United States Lat: 41.933
Local Time: 8:58 AM EDT (12:58 GMT) Lon: -72.683
Time Zone: US/Eastern Elev: 173 ft

Show me the last for .
Show Decoded

2018-09-20 07:51 METAR KBDL 201151Z 01005KT 10SM BKN024 BKN050 16/13 A3021 RMK AO2 SLP228
                 T01610128 10167 20156 53021 =
2018-09-20 07:44 METAR KBDL 201144Z 01006KT 10SM SCT024 BKN050 16/13 A3020 RMK AO2 T01610128 =
2018-09-20 06:51 METAR KBDL 201051Z 01003KT 10SM BKN021 BKN028 OVC055 16/13 A3019 RMK AO2 SLP222
                 BINOVC T01610133 =
2018-09-20 05:51 METAR KBDL 200951Z 36004KT 10SM FEW018 BKN024 OVC035 16/13 A3015 RMK AO2 SLP210
                 T01610133 =
2018-09-20 04:51 METAR KBDL 200851Z 04004KT 10SM SCT017 BKN024 OVC035 16/13 A3014 RMK AO2 SLP206
                 T01610128 51009 =
2018-09-20 03:51 METAR KBDL 200751Z 04006KT 10SM BKN019 OVC034 16/13 A3013 RMK AO2 SLP203
                 T01610128 =
2018-09-20 02:51 METAR KBDL 200651Z 05007KT 10SM FEW017 OVC030 17/13 A3013 RMK AO2 SLP202
                 T01670128 =
2018-09-20 02:32 METAR KBDL 200632Z 04006KT 10SM FEW018 OVC030 17/13 A3013 RMK AO2 T01670128 =
2018-09-20 01:51 METAR KBDL 200551Z 04005KT 10SM FEW017 OVC029 17/13 A3011 RMK AO2 SLP196 BINOVC
                 60000 T01670133 10194 20167 51008 =
2018-09-20 00:51 METAR KBDL 200451Z 07004KT 10SM FEW016 OVC025 17/14 A3011 RMK AO2 SLP194
                 T01720139 402560172 =
2018-09-19 23:51 METAR KBDL 200351Z 09004KT 10SM FEW009 OVC016 17/14 A3010 RMK AO2 DZB00E35
                 SLP192 P0000 T01720144 =
2018-09-19 22:51 METAR KBDL 200251Z 04004KT 10SM FEW020 BKN023 OVC037 18/14 A3009 RMK AO2 SLP188
                 T01780144 51024 =
2018-09-19 22:43 METAR KBDL 200243Z 04003KT 10SM BKN023 OVC037 18/14 A3009 RMK AO2 T01780144 =
2018-09-19 22:07 METAR KBDL 200207Z 06004KT 10SM BKN030 OVC035 18/14 A3008 RMK AO2 T01780144 =
2018-09-19 21:51 METAR KBDL 200151Z 07005KT 10SM SCT020 OVC029 18/14 A3007 RMK AO2 SLP182
                 T01830144 =
2018-09-19 20:51 METAR KBDL 200051Z 06006KT 10SM BKN018 OVC027 18/15 A3006 RMK AO2 SLP177
                 T01830150 =
2018-09-19 19:51 METAR KBDL 192351Z 08007KT 10SM FEW020 OVC026 19/16 A3002 RMK AO2 SLP165
                 T01940156 10256 20194 51019 =
2018-09-19 18:51 METAR KBDL 192251Z 11007KT 10SM BKN023 OVC041 21/17 A2999 RMK AO2 SLP155
                 T02060167 =
2018-09-19 18:46 METAR KBDL 192246Z 11006KT 10SM BKN023 OVC041 21/16 A2999 RMK AO2 =
2018-09-19 17:51 METAR KBDL 192151Z 12008KT 10SM SCT033 22/17 A2996 RMK AO2 SLP145 T02220167 =
2018-09-19 16:51 METAR KBDL 192051Z 01006KT 10SM SCT046 BKN200 24/16 A2994 RMK AO2 SLP137
                 T02440161 53004 =
2018-09-19 15:51 METAR KBDL 191951Z COR 10SM SCT037 SCT044 BKN150 24/17 A2992 RMK AO2 SLP130
                 T02440167 =
2018-09-19 14:51 METAR KBDL 191851Z 06004KT 10SM SCT032 SCT045 BKN250 24/16 A2992 RMK AO2 SLP132
                 T02440161 =
2018-09-19 13:51 METAR KBDL 191751Z 04009KT 10SM FEW036 SCT050 BKN250 25/16 A2993 RMK AO2 SLP133
                 T02500161 10256 20200 56000 =
2018-09-19 12:51 METAR KBDL 191651Z 03010KT 10SM FEW028 SCT048 BKN220 24/16 A2993 RMK AO2 SLP133
                 T02440156 =
2018-09-19 11:51 METAR KBDL 191551Z 02007KT 10SM FEW028 SCT042 BKN220 24/18 A2992 RMK AO2 SLP131
                 T02440178 =
2018-09-19 10:51 METAR KBDL 191451Z 36008KT 10SM FEW015 SCT025 BKN250 23/18 A2993 RMK AO2 SLP134
                 T02280183 53019 =
2018-09-19 10:20 METAR KBDL 191420Z 01008KT 10SM BKN016 BKN021 BKN250 23/18 A2992 RMK AO2
                 T02280183 =
2018-09-19 09:56 METAR KBDL 191356Z 04008KT 10SM BKN014 BKN250 23/18 A2991 RMK AO2 T02280183 =
2018-09-19 09:51 METAR KBDL 191351Z 03008KT 10SM SCT014 BKN250 23/19 A2991 RMK AO2 SLP126
                 T02280189 =

Support USWX by starting your Amazon purchase here.